sensor_id;sensor_type;location;lat;lon;timestamp;temperature;humidity
59469;DHT22;45277;52.768;18.262;2023-07-16T00:01:31;18.20;99.90
59469;DHT22;45277;52.768;18.262;2023-07-16T00:03:02;18.20;99.90
59469;DHT22;45277;52.768;18.262;2023-07-16T00:04:33;18.20;99.90
59469;DHT22;45277;52.768;18.262;2023-07-16T00:06:05;18.10;99.90
59469;DHT22;45277;52.768;18.262;2023-07-16T00:07:36;18.10;99.90
59469;DHT22;45277;52.768;18.262;2023-07-16T00:09:07;18.00;99.90
59469;DHT22;45277;52.768;18.262;2023-07-16T00:10:39;18.00;99.90
59469;DHT22;45277;52.768;18.262;2023-07-16T00:12:10;17.90;99.90
59469;DHT22;45277;52.768;18.262;2023-07-16T00:13:41;17.90;99.90
59469;DHT22;45277;52.768;18.262;2023-07-16T00:15:17;17.90;99.90
59469;DHT22;45277;52.768;18.262;2023-07-16T00:16:48;17.90;99.90
59469;DHT22;45277;52.768;18.262;2023-07-16T00:18:20;17.90;99.90
59469;DHT22;45277;52.768;18.262;2023-07-16T00:19:51;17.90;99.90
59469;DHT22;45277;52.768;18.262;2023-07-16T00:21:23;17.90;99.90
59469;DHT22;45277;52.768;18.262;2023-07-16T00:22:55;17.90;99.90
59469;DHT22;45277;52.768;18.262;2023-07-16T00:24:28;17.90;99.90
59469;DHT22;45277;52.768;18.262;2023-07-16T00:25:59;17.90;99.90
59469;DHT22;45277;52.768;18.262;2023-07-16T00:27:30;17.90;99.90
59469;DHT22;45277;52.768;18.262;2023-07-16T00:29:02;17.90;99.90
59469;DHT22;45277;52.768;18.262;2023-07-16T00:30:33;17.90;99.90
59469;DHT22;45277;52.768;18.262;2023-07-16T00:32:05;17.80;99.90
59469;DHT22;45277;52.768;18.262;2023-07-16T00:33:36;17.80;99.90
59469;DHT22;45277;52.768;18.262;2023-07-16T00:35:08;17.80;99.90
59469;DHT22;45277;52.768;18.262;2023-07-16T00:36:39;17.80;99.90
59469;DHT22;45277;52.768;18.262;2023-07-16T00:38:11;17.80;99.90
59469;DHT22;45277;52.768;18.262;2023-07-16T00:39:42;17.80;99.90
59469;DHT22;45277;52.768;18.262;2023-07-16T00:41:14;17.80;99.90
59469;DHT22;45277;52.768;18.262;2023-07-16T00:42:45;17.90;99.90
59469;DHT22;45277;52.768;18.262;2023-07-16T00:44:17;18.00;99.90
59469;DHT22;45277;52.768;18.262;2023-07-16T00:45:48;18.10;99.90
59469;DHT22;45277;52.768;18.262;2023-07-16T00:47:21;18.20;99.90
59469;DHT22;45277;52.768;18.262;2023-07-16T00:48:53;18.20;99.90
59469;DHT22;45277;52.768;18.262;2023-07-16T00:50:25;18.20;99.90
59469;DHT22;45277;52.768;18.262;2023-07-16T00:51:56;18.30;99.90
59469;DHT22;45277;52.768;18.262;2023-07-16T00:53:28;18.20;99.90
59469;DHT22;45277;52.768;18.262;2023-07-16T00:55:00;18.20;99.90
59469;DHT22;45277;52.768;18.262;2023-07-16T00:56:32;18.20;99.90
59469;DHT22;45277;52.768;18.262;2023-07-16T00:58:05;18.20;99.90
59469;DHT22;45277;52.768;18.262;2023-07-16T00:59:36;18.20;99.90
59469;DHT22;45277;52.768;18.262;2023-07-16T01:01:08;18.30;99.90
59469;DHT22;45277;52.768;18.262;2023-07-16T01:02:39;18.30;99.90
59469;DHT22;45277;52.768;18.262;2023-07-16T01:04:11;18.30;99.90
59469;DHT22;45277;52.768;18.262;2023-07-16T01:06:21;18.30;99.90
59469;DHT22;45277;52.768;18.262;2023-07-16T01:07:59;18.20;99.90
59469;DHT22;45277;52.768;18.262;2023-07-16T01:09:33;18.20;99.90
59469;DHT22;45277;52.768;18.262;2023-07-16T01:11:08;18.10;99.90
59469;DHT22;45277;52.768;18.262;2023-07-16T01:12:39;18.10;99.90
59469;DHT22;45277;52.768;18.262;2023-07-16T01:14:13;18.10;99.90
59469;DHT22;45277;52.768;18.262;2023-07-16T01:15:44;18.00;99.90
59469;DHT22;45277;52.768;18.262;2023-07-16T01:17:16;18.00;99.90
59469;DHT22;45277;52.768;18.262;2023-07-16T01:18:47;18.00;99.90
59469;DHT22;45277;52.768;18.262;2023-07-16T01:20:19;18.10;99.90
59469;DHT22;45277;52.768;18.262;2023-07-16T01:22:33;18.10;99.90
59469;DHT22;45277;52.768;18.262;2023-07-16T01:24:33;18.20;99.90
59469;DHT22;45277;52.768;18.262;2023-07-16T01:26:32;18.10;99.90
59469;DHT22;45277;52.768;18.262;2023-07-16T01:29:58;18.10;99.90
59469;DHT22;45277;52.768;18.262;2023-07-16T01:31:32;18.10;99.90
59469;DHT22;45277;52.768;18.262;2023-07-16T01:33:05;18.10;99.90
59469;DHT22;45277;52.768;18.262;2023-07-16T01:34:39;18.00;99.90
59469;DHT22;45277;52.768;18.262;2023-07-16T01:36:12;18.00;99.90
59469;DHT22;45277;52.768;18.262;2023-07-16T01:37:43;17.90;99.90
59469;DHT22;45277;52.768;18.262;2023-07-16T01:39:15;17.90;99.90
59469;DHT22;45277;52.768;18.262;2023-07-16T01:40:47;17.80;99.90
59469;DHT22;45277;52.768;18.262;2023-07-16T01:42:18;17.80;99.90
59469;DHT22;45277;52.768;18.262;2023-07-16T01:43:50;17.70;99.90
59469;DHT22;45277;52.768;18.262;2023-07-16T01:45:22;17.70;99.90
59469;DHT22;45277;52.768;18.262;2023-07-16T01:47:14;17.70;99.90
59469;DHT22;45277;52.768;18.262;2023-07-16T01:48:49;17.70;99.90
59469;DHT22;45277;52.768;18.262;2023-07-16T01:50:20;17.80;99.90
59469;DHT22;45277;52.768;18.262;2023-07-16T01:51:51;17.80;99.90
59469;DHT22;45277;52.768;18.262;2023-07-16T01:53:23;17.80;99.90
59469;DHT22;45277;52.768;18.262;2023-07-16T01:54:54;17.80;99.90
59469;DHT22;45277;52.768;18.262;2023-07-16T01:56:25;17.80;99.90
59469;DHT22;45277;52.768;18.262;2023-07-16T01:57:57;17.70;99.90
59469;DHT22;45277;52.768;18.262;2023-07-16T01:59:28;17.70;99.90
59469;DHT22;45277;52.768;18.262;2023-07-16T02:01:00;17.70;99.90
59469;DHT22;45277;52.768;18.262;2023-07-16T02:02:31;17.70;99.90
59469;DHT22;45277;52.768;18.262;2023-07-16T02:04:02;17.70;99.90
59469;DHT22;45277;52.768;18.262;2023-07-16T02:05:34;17.70;99.90
59469;DHT22;45277;52.768;18.262;2023-07-16T02:07:05;17.70;99.90
59469;DHT22;45277;52.768;18.262;2023-07-16T02:08:37;17.70;99.90
59469;DHT22;45277;52.768;18.262;2023-07-16T02:10:08;17.70;99.90
59469;DHT22;45277;52.768;18.262;2023-07-16T02:11:39;17.80;99.90
59469;DHT22;45277;52.768;18.262;2023-07-16T02:13:11;17.80;99.90
59469;DHT22;45277;52.768;18.262;2023-07-16T02:14:42;17.90;99.90
59469;DHT22;45277;52.768;18.262;2023-07-16T02:16:14;17.90;99.90
59469;DHT22;45277;52.768;18.262;2023-07-16T02:17:45;17.90;99.90
59469;DHT22;45277;52.768;18.262;2023-07-16T02:19:16;18.00;99.90
59469;DHT22;45277;52.768;18.262;2023-07-16T02:20:48;17.90;99.90
59469;DHT22;45277;52.768;18.262;2023-07-16T02:22:20;17.90;99.90
59469;DHT22;45277;52.768;18.262;2023-07-16T02:23:51;17.90;99.90
59469;DHT22;45277;52.768;18.262;2023-07-16T02:25:22;17.80;99.90
59469;DHT22;45277;52.768;18.262;2023-07-16T02:26:54;17.80;99.90
59469;DHT22;45277;52.768;18.262;2023-07-16T02:28:25;17.70;99.90
59469;DHT22;45277;52.768;18.262;2023-07-16T02:29:57;17.70;99.90
59469;DHT22;45277;52.768;18.262;2023-07-16T02:31:28;17.70;99.90
59469;DHT22;45277;52.768;18.262;2023-07-16T02:32:59;17.60;99.90
59469;DHT22;45277;52.768;18.262;2023-07-16T02:34:31;17.60;99.90
59469;DHT22;45277;52.768;18.262;2023-07-16T02:36:03;17.60;99.90
59469;DHT22;45277;52.768;18.262;2023-07-16T02:37:34;17.60;99.90
59469;DHT22;45277;52.768;18.262;2023-07-16T02:39:05;17.60;99.90
59469;DHT22;45277;52.768;18.262;2023-07-16T02:40:45;17.60;99.90
59469;DHT22;45277;52.768;18.262;2023-07-16T02:42:16;17.70;99.90
59469;DHT22;45277;52.768;18.262;2023-07-16T02:43:48;17.80;99.90
59469;DHT22;45277;52.768;18.262;2023-07-16T02:45:30;17.80;99.90
59469;DHT22;45277;52.768;18.262;2023-07-16T02:47:01;17.80;99.90
59469;DHT22;45277;52.768;18.262;2023-07-16T02:48:32;17.90;99.90
59469;DHT22;45277;52.768;18.262;2023-07-16T02:50:04;18.10;99.90
59469;DHT22;45277;52.768;18.262;2023-07-16T02:51:36;18.20;99.90
59469;DHT22;45277;52.768;18.262;2023-07-16T02:53:07;18.20;99.90
59469;DHT22;45277;52.768;18.262;2023-07-16T02:54:39;18.40;99.90
59469;DHT22;45277;52.768;18.262;2023-07-16T02:56:10;18.50;99.90
59469;DHT22;45277;52.768;18.262;2023-07-16T02:57:41;18.60;99.90
59469;DHT22;45277;52.768;18.262;2023-07-16T02:59:13;18.70;99.90
59469;DHT22;45277;52.768;18.262;2023-07-16T03:00:44;18.70;99.90
59469;DHT22;45277;52.768;18.262;2023-07-16T03:02:15;18.80;99.90
59469;DHT22;45277;52.768;18.262;2023-07-16T03:03:47;18.90;99.90
59469;DHT22;45277;52.768;18.262;2023-07-16T03:05:18;19.00;99.90
59469;DHT22;45277;52.768;18.262;2023-07-16T03:06:50;19.00;99.90
59469;DHT22;45277;52.768;18.262;2023-07-16T03:08:22;19.10;99.90
59469;DHT22;45277;52.768;18.262;2023-07-16T03:09:53;19.10;99.90
59469;DHT22;45277;52.768;18.262;2023-07-16T03:11:24;19.20;99.90
59469;DHT22;45277;52.768;18.262;2023-07-16T03:12:56;19.20;99.90
59469;DHT22;45277;52.768;18.262;2023-07-16T03:14:27;19.30;99.90
59469;DHT22;45277;52.768;18.262;2023-07-16T03:15:59;19.30;99.90
59469;DHT22;45277;52.768;18.262;2023-07-16T03:17:31;19.30;99.90
59469;DHT22;45277;52.768;18.262;2023-07-16T03:19:02;19.40;99.90
59469;DHT22;45277;52.768;18.262;2023-07-16T03:20:33;19.40;99.90
59469;DHT22;45277;52.768;18.262;2023-07-16T03:22:05;19.40;99.90
59469;DHT22;45277;52.768;18.262;2023-07-16T03:23:36;19.40;99.90
59469;DHT22;45277;52.768;18.262;2023-07-16T03:25:08;19.50;99.90
59469;DHT22;45277;52.768;18.262;2023-07-16T03:26:39;19.50;99.90
59469;DHT22;45277;52.768;18.262;2023-07-16T03:28:11;19.60;99.90
59469;DHT22;45277;52.768;18.262;2023-07-16T03:29:42;19.70;99.90
59469;DHT22;45277;52.768;18.262;2023-07-16T03:31:14;19.70;99.90
59469;DHT22;45277;52.768;18.262;2023-07-16T03:32:45;19.80;99.90
59469;DHT22;45277;52.768;18.262;2023-07-16T03:34:16;19.80;99.90
59469;DHT22;45277;52.768;18.262;2023-07-16T03:35:49;19.90;99.90
59469;DHT22;45277;52.768;18.262;2023-07-16T03:37:20;19.90;99.90
59469;DHT22;45277;52.768;18.262;2023-07-16T03:38:51;20.00;99.90
59469;DHT22;45277;52.768;18.262;2023-07-16T03:40:25;20.00;99.90
59469;DHT22;45277;52.768;18.262;2023-07-16T03:41:56;20.10;99.90
59469;DHT22;45277;52.768;18.262;2023-07-16T03:43:28;20.10;99.90
59469;DHT22;45277;52.768;18.262;2023-07-16T03:44:59;20.20;99.90
59469;DHT22;45277;52.768;18.262;2023-07-16T03:46:30;20.30;99.90
59469;DHT22;45277;52.768;18.262;2023-07-16T03:48:02;20.40;99.90
59469;DHT22;45277;52.768;18.262;2023-07-16T03:49:33;20.40;99.90
59469;DHT22;45277;52.768;18.262;2023-07-16T03:51:05;20.40;99.90
59469;DHT22;45277;52.768;18.262;2023-07-16T03:52:36;20.50;99.90
59469;DHT22;45277;52.768;18.262;2023-07-16T03:54:08;20.50;99.90
59469;DHT22;45277;52.768;18.262;2023-07-16T03:55:39;20.60;99.90
59469;DHT22;45277;52.768;18.262;2023-07-16T03:57:10;20.70;99.90
59469;DHT22;45277;52.768;18.262;2023-07-16T03:58:42;20.70;99.90
59469;DHT22;45277;52.768;18.262;2023-07-16T04:00:14;20.80;99.90
59469;DHT22;45277;52.768;18.262;2023-07-16T04:01:46;20.80;99.90
59469;DHT22;45277;52.768;18.262;2023-07-16T04:03:17;20.90;99.90
59469;DHT22;45277;52.768;18.262;2023-07-16T04:04:49;20.90;99.90
59469;DHT22;45277;52.768;18.262;2023-07-16T04:06:21;21.00;99.90
59469;DHT22;45277;52.768;18.262;2023-07-16T04:07:52;21.10;99.90
59469;DHT22;45277;52.768;18.262;2023-07-16T04:09:23;21.20;99.90
59469;DHT22;45277;52.768;18.262;2023-07-16T04:10:55;21.20;99.90
59469;DHT22;45277;52.768;18.262;2023-07-16T04:12:26;21.30;99.90
59469;DHT22;45277;52.768;18.262;2023-07-16T04:13:58;21.30;99.90
59469;DHT22;45277;52.768;18.262;2023-07-16T04:15:29;21.40;99.90
59469;DHT22;45277;52.768;18.262;2023-07-16T04:17:00;21.50;99.90
59469;DHT22;45277;52.768;18.262;2023-07-16T04:18:32;21.60;99.90
59469;DHT22;45277;52.768;18.262;2023-07-16T04:20:03;21.70;99.90
59469;DHT22;45277;52.768;18.262;2023-07-16T04:21:36;21.80;99.90
59469;DHT22;45277;52.768;18.262;2023-07-16T04:23:07;21.90;99.90
59469;DHT22;45277;52.768;18.262;2023-07-16T04:24:38;21.90;99.90
59469;DHT22;45277;52.768;18.262;2023-07-16T04:26:10;22.00;99.90
59469;DHT22;45277;52.768;18.262;2023-07-16T04:27:41;22.10;99.90
59469;DHT22;45277;52.768;18.262;2023-07-16T04:29:14;22.20;99.90
59469;DHT22;45277;52.768;18.262;2023-07-16T04:30:46;22.30;99.90
59469;DHT22;45277;52.768;18.262;2023-07-16T04:32:18;22.50;99.90
59469;DHT22;45277;52.768;18.262;2023-07-16T04:33:49;22.60;99.90
59469;DHT22;45277;52.768;18.262;2023-07-16T04:35:21;22.70;99.90
59469;DHT22;45277;52.768;18.262;2023-07-16T04:36:52;22.90;99.90
59469;DHT22;45277;52.768;18.262;2023-07-16T04:38:24;23.00;99.90
59469;DHT22;45277;52.768;18.262;2023-07-16T04:39:55;23.20;99.90
59469;DHT22;45277;52.768;18.262;2023-07-16T04:41:27;23.40;99.90
59469;DHT22;45277;52.768;18.262;2023-07-16T04:42:58;23.50;99.90
59469;DHT22;45277;52.768;18.262;2023-07-16T04:44:30;23.70;99.90
59469;DHT22;45277;52.768;18.262;2023-07-16T04:46:01;23.80;99.90
59469;DHT22;45277;52.768;18.262;2023-07-16T04:47:32;24.00;99.90
59469;DHT22;45277;52.768;18.262;2023-07-16T04:49:05;24.00;96.80
59469;DHT22;45277;52.768;18.262;2023-07-16T04:50:37;24.00;96.30
59469;DHT22;45277;52.768;18.262;2023-07-16T04:52:09;24.00;96.00
59469;DHT22;45277;52.768;18.262;2023-07-16T04:53:40;23.90;96.80
59469;DHT22;45277;52.768;18.262;2023-07-16T04:55:12;23.70;99.40
59469;DHT22;45277;52.768;18.262;2023-07-16T04:56:43;23.60;99.90
59469;DHT22;45277;52.768;18.262;2023-07-16T04:58:14;23.50;99.90
59469;DHT22;45277;52.768;18.262;2023-07-16T04:59:46;23.40;99.90
59469;DHT22;45277;52.768;18.262;2023-07-16T05:01:17;23.40;99.90
59469;DHT22;45277;52.768;18.262;2023-07-16T05:02:49;23.30;99.90
59469;DHT22;45277;52.768;18.262;2023-07-16T05:04:20;23.30;99.90
59469;DHT22;45277;52.768;18.262;2023-07-16T05:05:51;23.20;99.90
59469;DHT22;45277;52.768;18.262;2023-07-16T05:07:22;23.30;99.90
59469;DHT22;45277;52.768;18.262;2023-07-16T05:08:54;23.20;99.90
59469;DHT22;45277;52.768;18.262;2023-07-16T05:10:25;23.20;99.90
59469;DHT22;45277;52.768;18.262;2023-07-16T05:11:56;23.30;99.90
59469;DHT22;45277;52.768;18.262;2023-07-16T05:13:28;23.40;99.90
59469;DHT22;45277;52.768;18.262;2023-07-16T05:14:59;23.50;99.90
59469;DHT22;45277;52.768;18.262;2023-07-16T05:16:31;23.60;99.90
59469;DHT22;45277;52.768;18.262;2023-07-16T05:18:02;23.80;99.90
59469;DHT22;45277;52.768;18.262;2023-07-16T05:19:33;23.90;99.90
59469;DHT22;45277;52.768;18.262;2023-07-16T05:21:05;24.00;99.80
59469;DHT22;45277;52.768;18.262;2023-07-16T05:22:36;24.10;99.90
59469;DHT22;45277;52.768;18.262;2023-07-16T05:24:07;24.20;98.80
59469;DHT22;45277;52.768;18.262;2023-07-16T05:25:39;24.40;96.10
59469;DHT22;45277;52.768;18.262;2023-07-16T05:27:10;24.50;94.40
59469;DHT22;45277;52.768;18.262;2023-07-16T05:28:41;24.60;94.60
59469;DHT22;45277;52.768;18.262;2023-07-16T05:30:13;24.80;92.60
59469;DHT22;45277;52.768;18.262;2023-07-16T05:31:44;24.90;91.10
59469;DHT22;45277;52.768;18.262;2023-07-16T05:33:17;25.00;86.70
59469;DHT22;45277;52.768;18.262;2023-07-16T05:34:49;25.20;88.80
59469;DHT22;45277;52.768;18.262;2023-07-16T05:36:20;25.30;73.10
59469;DHT22;45277;52.768;18.262;2023-07-16T05:37:51;25.50;69.30
59469;DHT22;45277;52.768;18.262;2023-07-16T05:39:23;25.50;65.80
59469;DHT22;45277;52.768;18.262;2023-07-16T05:41:02;25.50;61.10
59469;DHT22;45277;52.768;18.262;2023-07-16T05:42:34;25.60;61.20
59469;DHT22;45277;52.768;18.262;2023-07-16T05:44:06;25.60;51.30
59469;DHT22;45277;52.768;18.262;2023-07-16T05:45:37;25.70;51.60
59469;DHT22;45277;52.768;18.262;2023-07-16T05:47:09;25.70;53.10
59469;DHT22;45277;52.768;18.262;2023-07-16T05:48:41;25.70;53.40
59469;DHT22;45277;52.768;18.262;2023-07-16T05:50:12;25.70;50.80
59469;DHT22;45277;52.768;18.262;2023-07-16T05:51:43;25.70;49.30
59469;DHT22;45277;52.768;18.262;2023-07-16T05:53:15;25.80;55.80
59469;DHT22;45277;52.768;18.262;2023-07-16T05:54:46;25.80;53.00
59469;DHT22;45277;52.768;18.262;2023-07-16T05:56:18;25.80;50.60
59469;DHT22;45277;52.768;18.262;2023-07-16T05:57:50;25.90;49.20
59469;DHT22;45277;52.768;18.262;2023-07-16T05:59:22;25.90;48.30
59469;DHT22;45277;52.768;18.262;2023-07-16T06:00:53;26.00;43.90
59469;DHT22;45277;52.768;18.262;2023-07-16T06:02:25;26.00;45.40
59469;DHT22;45277;52.768;18.262;2023-07-16T06:03:56;26.00;42.40
59469;DHT22;45277;52.768;18.262;2023-07-16T06:05:27;26.00;45.80
59469;DHT22;45277;52.768;18.262;2023-07-16T06:07:03;26.00;34.70
59469;DHT22;45277;52.768;18.262;2023-07-16T06:08:35;26.00;33.20
59469;DHT22;45277;52.768;18.262;2023-07-16T06:10:06;26.00;38.40
59469;DHT22;45277;52.768;18.262;2023-07-16T06:11:38;26.10;30.60
59469;DHT22;45277;52.768;18.262;2023-07-16T06:13:10;26.10;35.10
59469;DHT22;45277;52.768;18.262;2023-07-16T06:14:41;26.10;27.80
59469;DHT22;45277;52.768;18.262;2023-07-16T06:16:13;26.20;24.60
59469;DHT22;45277;52.768;18.262;2023-07-16T06:17:44;26.20;28.40
59469;DHT22;45277;52.768;18.262;2023-07-16T06:19:15;26.30;24.60
59469;DHT22;45277;52.768;18.262;2023-07-16T06:20:47;26.40;21.30
59469;DHT22;45277;52.768;18.262;2023-07-16T06:22:18;26.50;17.20
59469;DHT22;45277;52.768;18.262;2023-07-16T06:23:50;26.50;14.80
59469;DHT22;45277;52.768;18.262;2023-07-16T06:25:22;26.60;8.50
59469;DHT22;45277;52.768;18.262;2023-07-16T06:26:53;26.60;5.50
59469;DHT22;45277;52.768;18.262;2023-07-16T06:28:24;26.60;5.50
59469;DHT22;45277;52.768;18.262;2023-07-16T06:29:56;26.60;3.90
59469;DHT22;45277;52.768;18.262;2023-07-16T06:31:27;26.70;2.70
59469;DHT22;45277;52.768;18.262;2023-07-16T06:32:59;26.70;4.80
59469;DHT22;45277;52.768;18.262;2023-07-16T06:34:31;26.70;2.50
59469;DHT22;45277;52.768;18.262;2023-07-16T06:36:02;26.70;4.30
59469;DHT22;45277;52.768;18.262;2023-07-16T06:37:33;26.70;1.20
59469;DHT22;45277;52.768;18.262;2023-07-16T06:39:05;26.70;7.60
59469;DHT22;45277;52.768;18.262;2023-07-16T06:40:37;26.80;4.60
59469;DHT22;45277;52.768;18.262;2023-07-16T06:42:08;26.90;1.60
59469;DHT22;45277;52.768;18.262;2023-07-16T06:43:40;26.90;3.80
59469;DHT22;45277;52.768;18.262;2023-07-16T06:45:11;26.90;2.40
59469;DHT22;45277;52.768;18.262;2023-07-16T06:46:42;26.90;2.00
59469;DHT22;45277;52.768;18.262;2023-07-16T06:48:14;26.90;1.10
59469;DHT22;45277;52.768;18.262;2023-07-16T06:49:45;26.90;1.00
59469;DHT22;45277;52.768;18.262;2023-07-16T06:51:16;26.90;1.00
59469;DHT22;45277;52.768;18.262;2023-07-16T06:52:48;27.00;1.00
59469;DHT22;45277;52.768;18.262;2023-07-16T06:54:19;27.00;1.00
59469;DHT22;45277;52.768;18.262;2023-07-16T06:55:50;27.10;1.00
59469;DHT22;45277;52.768;18.262;2023-07-16T06:57:23;27.10;1.00
59469;DHT22;45277;52.768;18.262;2023-07-16T06:58:54;27.20;1.00
59469;DHT22;45277;52.768;18.262;2023-07-16T07:00:25;27.20;1.00
59469;DHT22;45277;52.768;18.262;2023-07-16T07:01:57;27.30;1.00
59469;DHT22;45277;52.768;18.262;2023-07-16T07:03:28;27.40;1.00
59469;DHT22;45277;52.768;18.262;2023-07-16T07:04:59;27.50;1.00
59469;DHT22;45277;52.768;18.262;2023-07-16T07:06:31;27.60;1.00
59469;DHT22;45277;52.768;18.262;2023-07-16T07:08:03;27.80;1.00
59469;DHT22;45277;52.768;18.262;2023-07-16T07:09:34;27.90;1.00
59469;DHT22;45277;52.768;18.262;2023-07-16T07:11:06;28.10;1.00
59469;DHT22;45277;52.768;18.262;2023-07-16T07:12:37;28.20;1.00
59469;DHT22;45277;52.768;18.262;2023-07-16T07:14:09;28.40;1.00
59469;DHT22;45277;52.768;18.262;2023-07-16T07:15:42;28.40;1.00
59469;DHT22;45277;52.768;18.262;2023-07-16T07:17:13;28.40;1.00
59469;DHT22;45277;52.768;18.262;2023-07-16T07:18:45;28.40;1.00
59469;DHT22;45277;52.768;18.262;2023-07-16T07:20:16;28.40;1.00
59469;DHT22;45277;52.768;18.262;2023-07-16T07:21:48;28.50;1.00
59469;DHT22;45277;52.768;18.262;2023-07-16T07:23:19;28.60;1.00
59469;DHT22;45277;52.768;18.262;2023-07-16T07:24:50;28.70;1.00
59469;DHT22;45277;52.768;18.262;2023-07-16T07:26:22;28.70;1.00
59469;DHT22;45277;52.768;18.262;2023-07-16T07:27:53;28.60;1.00
59469;DHT22;45277;52.768;18.262;2023-07-16T07:29:25;28.50;1.00
59469;DHT22;45277;52.768;18.262;2023-07-16T07:30:56;28.50;1.00
59469;DHT22;45277;52.768;18.262;2023-07-16T07:32:29;28.50;1.00
59469;DHT22;45277;52.768;18.262;2023-07-16T07:34:01;28.40;1.00
59469;DHT22;45277;52.768;18.262;2023-07-16T07:35:33;28.30;1.00
59469;DHT22;45277;52.768;18.262;2023-07-16T07:37:05;28.30;1.00
59469;DHT22;45277;52.768;18.262;2023-07-16T07:38:37;28.30;1.00
59469;DHT22;45277;52.768;18.262;2023-07-16T07:40:08;28.30;1.00
59469;DHT22;45277;52.768;18.262;2023-07-16T07:41:40;28.20;1.00
59469;DHT22;45277;52.768;18.262;2023-07-16T07:43:11;28.30;1.00
59469;DHT22;45277;52.768;18.262;2023-07-16T07:44:43;28.30;1.00
59469;DHT22;45277;52.768;18.262;2023-07-16T07:46:14;28.40;1.00
59469;DHT22;45277;52.768;18.262;2023-07-16T07:47:46;28.40;1.00
59469;DHT22;45277;52.768;18.262;2023-07-16T07:49:17;28.50;1.00
59469;DHT22;45277;52.768;18.262;2023-07-16T07:50:48;28.50;1.00
59469;DHT22;45277;52.768;18.262;2023-07-16T07:52:20;28.70;1.00
59469;DHT22;45277;52.768;18.262;2023-07-16T07:53:51;28.80;1.00
59469;DHT22;45277;52.768;18.262;2023-07-16T07:55:23;28.90;1.00
59469;DHT22;45277;52.768;18.262;2023-07-16T07:56:54;29.10;1.00
59469;DHT22;45277;52.768;18.262;2023-07-16T07:58:26;29.20;1.00
59469;DHT22;45277;52.768;18.262;2023-07-16T07:59:58;29.20;1.00
59469;DHT22;45277;52.768;18.262;2023-07-16T08:01:31;29.10;1.00
59469;DHT22;45277;52.768;18.262;2023-07-16T08:03:03;29.00;1.00
59469;DHT22;45277;52.768;18.262;2023-07-16T08:04:35;28.90;1.00
59469;DHT22;45277;52.768;18.262;2023-07-16T08:06:09;28.70;1.00
59469;DHT22;45277;52.768;18.262;2023-07-16T08:07:42;28.60;1.00
59469;DHT22;45277;52.768;18.262;2023-07-16T08:09:14;28.60;1.00
59469;DHT22;45277;52.768;18.262;2023-07-16T08:10:45;28.60;1.00
59469;DHT22;45277;52.768;18.262;2023-07-16T08:12:17;28.70;1.00
59469;DHT22;45277;52.768;18.262;2023-07-16T08:13:49;28.90;1.00
59469;DHT22;45277;52.768;18.262;2023-07-16T08:15:21;29.20;1.00
59469;DHT22;45277;52.768;18.262;2023-07-16T08:16:52;29.60;1.00
59469;DHT22;45277;52.768;18.262;2023-07-16T08:18:25;30.00;1.00
59469;DHT22;45277;52.768;18.262;2023-07-16T08:19:58;30.40;1.00
59469;DHT22;45277;52.768;18.262;2023-07-16T08:21:29;30.70;1.00
59469;DHT22;45277;52.768;18.262;2023-07-16T08:23:01;30.80;1.00
59469;DHT22;45277;52.768;18.262;2023-07-16T08:24:32;30.60;1.00
59469;DHT22;45277;52.768;18.262;2023-07-16T08:26:04;30.50;1.00
59469;DHT22;45277;52.768;18.262;2023-07-16T08:27:35;30.30;1.00
59469;DHT22;45277;52.768;18.262;2023-07-16T08:29:07;30.20;1.00
59469;DHT22;45277;52.768;18.262;2023-07-16T08:30:40;30.10;1.00
59469;DHT22;45277;52.768;18.262;2023-07-16T08:32:11;30.00;1.00
59469;DHT22;45277;52.768;18.262;2023-07-16T08:33:43;29.80;1.00
59469;DHT22;45277;52.768;18.262;2023-07-16T08:35:16;29.90;1.00
59469;DHT22;45277;52.768;18.262;2023-07-16T08:36:48;29.80;1.00
59469;DHT22;45277;52.768;18.262;2023-07-16T08:38:20;29.80;1.00
59469;DHT22;45277;52.768;18.262;2023-07-16T08:39:52;29.90;1.00
59469;DHT22;45277;52.768;18.262;2023-07-16T08:41:26;30.00;1.00
59469;DHT22;45277;52.768;18.262;2023-07-16T08:42:59;30.20;1.00
59469;DHT22;45277;52.768;18.262;2023-07-16T08:44:31;30.30;1.00
59469;DHT22;45277;52.768;18.262;2023-07-16T08:46:02;30.40;1.00
59469;DHT22;45277;52.768;18.262;2023-07-16T08:47:35;30.50;1.00
59469;DHT22;45277;52.768;18.262;2023-07-16T08:49:07;30.50;1.00
59469;DHT22;45277;52.768;18.262;2023-07-16T08:50:42;30.40;1.00
59469;DHT22;45277;52.768;18.262;2023-07-16T08:52:14;30.30;1.00
59469;DHT22;45277;52.768;18.262;2023-07-16T08:53:47;30.30;1.00
59469;DHT22;45277;52.768;18.262;2023-07-16T08:55:18;30.30;1.00
59469;DHT22;45277;52.768;18.262;2023-07-16T08:56:51;30.20;1.00
59469;DHT22;45277;52.768;18.262;2023-07-16T08:58:24;30.10;1.00
59469;DHT22;45277;52.768;18.262;2023-07-16T08:59:57;30.10;1.00
59469;DHT22;45277;52.768;18.262;2023-07-16T09:01:30;30.00;1.00
59469;DHT22;45277;52.768;18.262;2023-07-16T09:03:02;30.10;1.00
59469;DHT22;45277;52.768;18.262;2023-07-16T09:04:37;30.20;1.00
59469;DHT22;45277;52.768;18.262;2023-07-16T09:06:14;30.10;1.00
59469;DHT22;45277;52.768;18.262;2023-07-16T09:07:47;30.00;1.00
59469;DHT22;45277;52.768;18.262;2023-07-16T09:09:24;30.00;1.00
59469;DHT22;45277;52.768;18.262;2023-07-16T09:10:58;29.90;1.00
59469;DHT22;45277;52.768;18.262;2023-07-16T09:12:30;29.60;1.00
59469;DHT22;45277;52.768;18.262;2023-07-16T09:14:04;29.60;1.00
59469;DHT22;45277;52.768;18.262;2023-07-16T09:15:36;29.60;1.00
59469;DHT22;45277;52.768;18.262;2023-07-16T09:17:08;29.60;1.00
59469;DHT22;45277;52.768;18.262;2023-07-16T09:18:40;29.60;1.00
59469;DHT22;45277;52.768;18.262;2023-07-16T09:20:17;29.50;1.00
59469;DHT22;45277;52.768;18.262;2023-07-16T09:21:50;29.40;1.00
59469;DHT22;45277;52.768;18.262;2023-07-16T09:23:26;29.30;1.00
59469;DHT22;45277;52.768;18.262;2023-07-16T09:25:01;29.30;1.00
59469;DHT22;45277;52.768;18.262;2023-07-16T09:26:33;29.20;1.00
59469;DHT22;45277;52.768;18.262;2023-07-16T09:28:04;29.20;1.00
59469;DHT22;45277;52.768;18.262;2023-07-16T09:29:38;29.10;1.00
59469;DHT22;45277;52.768;18.262;2023-07-16T09:31:09;29.10;1.00
59469;DHT22;45277;52.768;18.262;2023-07-16T09:32:41;29.20;1.00
59469;DHT22;45277;52.768;18.262;2023-07-16T09:34:13;29.10;1.00
59469;DHT22;45277;52.768;18.262;2023-07-16T09:35:48;29.00;1.00
59469;DHT22;45277;52.768;18.262;2023-07-16T09:37:20;28.90;1.00
59469;DHT22;45277;52.768;18.262;2023-07-16T09:38:57;28.90;1.00